sensor_id;sensor_type;location;lat;lon;timestamp;temperature;humidity
37702;DHT22;23548;51.196;6.838;2022-08-27T00:00:40;18.70;99.90
37702;DHT22;23548;51.196;6.838;2022-08-27T00:03:06;18.80;99.90
37702;DHT22;23548;51.196;6.838;2022-08-27T00:05:31;18.80;99.90
37702;DHT22;23548;51.196;6.838;2022-08-27T00:07:57;18.80;99.90
37702;DHT22;23548;51.196;6.838;2022-08-27T00:10:25;18.80;99.90
37702;DHT22;23548;51.196;6.838;2022-08-27T00:12:52;18.80;99.90
37702;DHT22;23548;51.196;6.838;2022-08-27T00:15:20;18.80;99.90
37702;DHT22;23548;51.196;6.838;2022-08-27T00:17:46;18.60;99.90
37702;DHT22;23548;51.196;6.838;2022-08-27T00:20:14;18.60;99.90
37702;DHT22;23548;51.196;6.838;2022-08-27T00:22:41;18.60;99.90
37702;DHT22;23548;51.196;6.838;2022-08-27T00:25:08;18.50;99.90
37702;DHT22;23548;51.196;6.838;2022-08-27T00:27:34;18.50;99.90
37702;DHT22;23548;51.196;6.838;2022-08-27T00:30:01;18.50;99.90
37702;DHT22;23548;51.196;6.838;2022-08-27T00:32:27;18.50;99.90
37702;DHT22;23548;51.196;6.838;2022-08-27T00:34:53;18.50;99.90
37702;DHT22;23548;51.196;6.838;2022-08-27T00:37:18;18.50;99.90
37702;DHT22;23548;51.196;6.838;2022-08-27T00:39:44;18.30;99.90
37702;DHT22;23548;51.196;6.838;2022-08-27T00:42:11;18.30;99.90
37702;DHT22;23548;51.196;6.838;2022-08-27T00:44:37;18.30;99.90
37702;DHT22;23548;51.196;6.838;2022-08-27T00:47:10;18.30;99.90
37702;DHT22;23548;51.196;6.838;2022-08-27T00:49:48;18.40;99.90
37702;DHT22;23548;51.196;6.838;2022-08-27T00:52:54;18.30;99.90
37702;DHT22;23548;51.196;6.838;2022-08-27T00:55:24;18.20;99.90
37702;DHT22;23548;51.196;6.838;2022-08-27T00:58:29;18.20;99.90
37702;DHT22;23548;51.196;6.838;2022-08-27T01:00:56;18.10;99.90
37702;DHT22;23548;51.196;6.838;2022-08-27T01:03:22;18.10;99.90
37702;DHT22;23548;51.196;6.838;2022-08-27T01:05:51;18.00;99.90
37702;DHT22;23548;51.196;6.838;2022-08-27T01:08:20;18.00;99.90
37702;DHT22;23548;51.196;6.838;2022-08-27T01:10:47;18.00;99.90
37702;DHT22;23548;51.196;6.838;2022-08-27T01:13:16;18.00;99.90
37702;DHT22;23548;51.196;6.838;2022-08-27T01:15:42;18.00;99.90
37702;DHT22;23548;51.196;6.838;2022-08-27T01:18:09;18.00;99.90
37702;DHT22;23548;51.196;6.838;2022-08-27T01:23:50;17.90;99.90
37702;DHT22;23548;51.196;6.838;2022-08-27T01:29:40;18.00;99.90
37702;DHT22;23548;51.196;6.838;2022-08-27T01:32:09;18.00;99.90
37702;DHT22;23548;51.196;6.838;2022-08-27T01:34:36;17.90;99.90
37702;DHT22;23548;51.196;6.838;2022-08-27T01:37:03;17.90;99.90
37702;DHT22;23548;51.196;6.838;2022-08-27T01:39:35;17.90;99.90
37702;DHT22;23548;51.196;6.838;2022-08-27T01:42:07;17.90;99.90
37702;DHT22;23548;51.196;6.838;2022-08-27T01:44:50;18.00;99.90
37702;DHT22;23548;51.196;6.838;2022-08-27T01:47:18;18.00;99.90
37702;DHT22;23548;51.196;6.838;2022-08-27T01:49:45;18.00;99.90
37702;DHT22;23548;51.196;6.838;2022-08-27T01:52:12;18.00;99.90
37702;DHT22;23548;51.196;6.838;2022-08-27T01:54:38;18.00;99.90
37702;DHT22;23548;51.196;6.838;2022-08-27T01:57:04;18.00;99.90
37702;DHT22;23548;51.196;6.838;2022-08-27T01:59:30;18.00;99.90
37702;DHT22;23548;51.196;6.838;2022-08-27T02:01:56;18.10;99.90
37702;DHT22;23548;51.196;6.838;2022-08-27T02:04:22;18.10;99.90
37702;DHT22;23548;51.196;6.838;2022-08-27T02:06:48;18.10;99.90
37702;DHT22;23548;51.196;6.838;2022-08-27T02:09:14;18.20;99.90
37702;DHT22;23548;51.196;6.838;2022-08-27T02:11:40;18.20;99.90
37702;DHT22;23548;51.196;6.838;2022-08-27T02:14:05;18.20;99.90
37702;DHT22;23548;51.196;6.838;2022-08-27T02:16:31;18.20;99.90
37702;DHT22;23548;51.196;6.838;2022-08-27T02:19:00;18.20;99.90
37702;DHT22;23548;51.196;6.838;2022-08-27T02:21:25;18.30;99.90
37702;DHT22;23548;51.196;6.838;2022-08-27T02:23:51;18.20;99.90
37702;DHT22;23548;51.196;6.838;2022-08-27T02:26:19;18.20;99.90
37702;DHT22;23548;51.196;6.838;2022-08-27T02:28:44;18.30;99.90
37702;DHT22;23548;51.196;6.838;2022-08-27T02:31:10;18.30;99.90
37702;DHT22;23548;51.196;6.838;2022-08-27T02:33:36;18.30;99.90
37702;DHT22;23548;51.196;6.838;2022-08-27T02:36:02;18.30;99.90
37702;DHT22;23548;51.196;6.838;2022-08-27T02:38:28;18.30;99.90
37702;DHT22;23548;51.196;6.838;2022-08-27T02:40:54;18.40;99.90
37702;DHT22;23548;51.196;6.838;2022-08-27T02:43:20;18.40;99.90
37702;DHT22;23548;51.196;6.838;2022-08-27T02:45:46;18.40;99.90
37702;DHT22;23548;51.196;6.838;2022-08-27T02:48:12;18.40;99.90
37702;DHT22;23548;51.196;6.838;2022-08-27T02:50:38;18.40;99.90
37702;DHT22;23548;51.196;6.838;2022-08-27T02:53:05;18.30;99.90
37702;DHT22;23548;51.196;6.838;2022-08-27T02:55:31;18.30;99.90
37702;DHT22;23548;51.196;6.838;2022-08-27T02:57:57;18.30;99.90
37702;DHT22;23548;51.196;6.838;2022-08-27T03:00:24;18.30;99.90
37702;DHT22;23548;51.196;6.838;2022-08-27T03:02:50;18.30;99.90
37702;DHT22;23548;51.196;6.838;2022-08-27T03:05:17;18.40;99.90
37702;DHT22;23548;51.196;6.838;2022-08-27T03:07:44;18.40;99.90
37702;DHT22;23548;51.196;6.838;2022-08-27T03:10:13;18.50;99.90
37702;DHT22;23548;51.196;6.838;2022-08-27T03:12:39;18.40;99.90
37702;DHT22;23548;51.196;6.838;2022-08-27T03:15:08;18.40;99.90
37702;DHT22;23548;51.196;6.838;2022-08-27T03:17:34;18.40;99.90
37702;DHT22;23548;51.196;6.838;2022-08-27T03:20:18;18.40;99.90
37702;DHT22;23548;51.196;6.838;2022-08-27T03:22:45;18.40;99.90
37702;DHT22;23548;51.196;6.838;2022-08-27T03:25:11;18.50;99.90
37702;DHT22;23548;51.196;6.838;2022-08-27T03:27:38;18.50;99.90
37702;DHT22;23548;51.196;6.838;2022-08-27T03:30:08;18.40;99.90
37702;DHT22;23548;51.196;6.838;2022-08-27T03:32:35;18.40;99.90
37702;DHT22;23548;51.196;6.838;2022-08-27T03:35:01;18.40;99.90
37702;DHT22;23548;51.196;6.838;2022-08-27T03:37:26;18.30;99.90
37702;DHT22;23548;51.196;6.838;2022-08-27T03:39:53;18.30;99.90
37702;DHT22;23548;51.196;6.838;2022-08-27T03:42:20;18.20;99.90
37702;DHT22;23548;51.196;6.838;2022-08-27T03:44:46;18.20;99.90
37702;DHT22;23548;51.196;6.838;2022-08-27T03:47:12;18.10;99.90
37702;DHT22;23548;51.196;6.838;2022-08-27T03:49:38;18.10;99.90
37702;DHT22;23548;51.196;6.838;2022-08-27T03:52:04;18.20;99.90
37702;DHT22;23548;51.196;6.838;2022-08-27T03:54:30;18.20;99.90
37702;DHT22;23548;51.196;6.838;2022-08-27T03:56:57;18.10;99.90
37702;DHT22;23548;51.196;6.838;2022-08-27T03:59:22;18.00;99.90
37702;DHT22;23548;51.196;6.838;2022-08-27T04:01:49;17.90;99.90
37702;DHT22;23548;51.196;6.838;2022-08-27T04:04:14;17.90;99.90
37702;DHT22;23548;51.196;6.838;2022-08-27T04:06:40;17.80;99.90
37702;DHT22;23548;51.196;6.838;2022-08-27T04:09:06;17.80;99.90
37702;DHT22;23548;51.196;6.838;2022-08-27T04:11:35;17.80;99.90
37702;DHT22;23548;51.196;6.838;2022-08-27T04:14:05;17.80;99.90
37702;DHT22;23548;51.196;6.838;2022-08-27T04:16:32;17.80;99.90
37702;DHT22;23548;51.196;6.838;2022-08-27T04:18:58;17.70;99.90
37702;DHT22;23548;51.196;6.838;2022-08-27T04:21:24;17.70;99.90
37702;DHT22;23548;51.196;6.838;2022-08-27T04:23:50;17.70;99.90
37702;DHT22;23548;51.196;6.838;2022-08-27T04:26:16;17.70;99.90
37702;DHT22;23548;51.196;6.838;2022-08-27T04:28:42;17.80;99.90
37702;DHT22;23548;51.196;6.838;2022-08-27T04:31:08;17.80;99.90
37702;DHT22;23548;51.196;6.838;2022-08-27T04:33:34;17.70;99.90
37702;DHT22;23548;51.196;6.838;2022-08-27T04:36:03;17.60;99.90
37702;DHT22;23548;51.196;6.838;2022-08-27T04:38:29;17.60;99.90
37702;DHT22;23548;51.196;6.838;2022-08-27T04:40:55;17.60;99.90
37702;DHT22;23548;51.196;6.838;2022-08-27T04:43:39;17.60;99.90
37702;DHT22;23548;51.196;6.838;2022-08-27T04:46:05;17.50;99.90
37702;DHT22;23548;51.196;6.838;2022-08-27T04:48:31;17.50;99.90
37702;DHT22;23548;51.196;6.838;2022-08-27T04:50:57;17.60;99.90
37702;DHT22;23548;51.196;6.838;2022-08-27T04:53:23;17.50;99.90
37702;DHT22;23548;51.196;6.838;2022-08-27T04:55:52;17.50;99.90
37702;DHT22;23548;51.196;6.838;2022-08-27T04:58:19;17.40;99.90
37702;DHT22;23548;51.196;6.838;2022-08-27T05:00:51;17.40;99.90
37702;DHT22;23548;51.196;6.838;2022-08-27T05:03:19;17.30;99.90
37702;DHT22;23548;51.196;6.838;2022-08-27T05:05:46;17.30;99.90
37702;DHT22;23548;51.196;6.838;2022-08-27T05:08:12;17.30;99.90
37702;DHT22;23548;51.196;6.838;2022-08-27T05:10:40;17.30;99.90
37702;DHT22;23548;51.196;6.838;2022-08-27T05:13:06;17.30;99.90
37702;DHT22;23548;51.196;6.838;2022-08-27T05:15:32;17.30;99.90
37702;DHT22;23548;51.196;6.838;2022-08-27T05:17:58;17.30;99.90
37702;DHT22;23548;51.196;6.838;2022-08-27T05:20:28;17.30;99.90
37702;DHT22;23548;51.196;6.838;2022-08-27T05:22:55;17.40;99.90
37702;DHT22;23548;51.196;6.838;2022-08-27T05:25:22;17.40;99.90
37702;DHT22;23548;51.196;6.838;2022-08-27T05:27:48;17.40;99.90
37702;DHT22;23548;51.196;6.838;2022-08-27T05:30:14;17.30;99.90
37702;DHT22;23548;51.196;6.838;2022-08-27T05:32:40;17.30;99.90
37702;DHT22;23548;51.196;6.838;2022-08-27T05:35:06;17.30;99.90
37702;DHT22;23548;51.196;6.838;2022-08-27T05:37:34;17.20;99.90
37702;DHT22;23548;51.196;6.838;2022-08-27T05:40:01;17.20;99.90
37702;DHT22;23548;51.196;6.838;2022-08-27T05:42:31;17.20;99.90
37702;DHT22;23548;51.196;6.838;2022-08-27T05:44:58;17.20;99.90
37702;DHT22;23548;51.196;6.838;2022-08-27T05:47:24;17.20;99.90
37702;DHT22;23548;51.196;6.838;2022-08-27T05:49:54;17.20;99.90
37702;DHT22;23548;51.196;6.838;2022-08-27T05:52:20;17.30;99.90
37702;DHT22;23548;51.196;6.838;2022-08-27T05:54:46;17.30;99.90
37702;DHT22;23548;51.196;6.838;2022-08-27T05:57:12;17.30;99.90
37702;DHT22;23548;51.196;6.838;2022-08-27T05:59:38;17.30;99.90
37702;DHT22;23548;51.196;6.838;2022-08-27T06:02:23;17.30;99.90
37702;DHT22;23548;51.196;6.838;2022-08-27T06:04:48;17.30;99.90
37702;DHT22;23548;51.196;6.838;2022-08-27T06:07:15;17.30;99.90
37702;DHT22;23548;51.196;6.838;2022-08-27T06:09:41;17.20;99.90
37702;DHT22;23548;51.196;6.838;2022-08-27T06:12:07;17.30;99.90
37702;DHT22;23548;51.196;6.838;2022-08-27T06:14:35;17.30;99.90
37702;DHT22;23548;51.196;6.838;2022-08-27T06:17:01;17.40;99.90
37702;DHT22;23548;51.196;6.838;2022-08-27T06:19:27;17.50;99.90
37702;DHT22;23548;51.196;6.838;2022-08-27T06:21:54;17.50;99.90
37702;DHT22;23548;51.196;6.838;2022-08-27T06:24:20;17.50;99.90
37702;DHT22;23548;51.196;6.838;2022-08-27T06:26:47;17.50;99.90
37702;DHT22;23548;51.196;6.838;2022-08-27T06:29:13;17.50;99.90
37702;DHT22;23548;51.196;6.838;2022-08-27T06:31:39;17.50;99.90
37702;DHT22;23548;51.196;6.838;2022-08-27T06:34:07;17.70;99.90
37702;DHT22;23548;51.196;6.838;2022-08-27T06:36:35;17.70;99.90
37702;DHT22;23548;51.196;6.838;2022-08-27T06:39:02;17.70;99.90
37702;DHT22;23548;51.196;6.838;2022-08-27T06:41:28;17.80;99.90
37702;DHT22;23548;51.196;6.838;2022-08-27T06:43:55;17.70;99.90
37702;DHT22;23548;51.196;6.838;2022-08-27T06:46:23;17.70;99.90
37702;DHT22;23548;51.196;6.838;2022-08-27T06:48:54;17.80;99.90
37702;DHT22;23548;51.196;6.838;2022-08-27T06:51:23;17.80;99.90
37702;DHT22;23548;51.196;6.838;2022-08-27T06:53:52;17.70;99.90
37702;DHT22;23548;51.196;6.838;2022-08-27T06:56:18;17.90;99.90
37702;DHT22;23548;51.196;6.838;2022-08-27T06:58:45;17.90;99.90
37702;DHT22;23548;51.196;6.838;2022-08-27T07:01:20;18.10;99.90
37702;DHT22;23548;51.196;6.838;2022-08-27T07:03:46;18.20;99.90
37702;DHT22;23548;51.196;6.838;2022-08-27T07:06:14;18.20;99.90
37702;DHT22;23548;51.196;6.838;2022-08-27T07:08:41;18.30;99.90
37702;DHT22;23548;51.196;6.838;2022-08-27T07:11:08;18.40;99.90
37702;DHT22;23548;51.196;6.838;2022-08-27T07:13:35;18.50;99.90
37702;DHT22;23548;51.196;6.838;2022-08-27T07:16:06;18.50;99.90
37702;DHT22;23548;51.196;6.838;2022-08-27T07:18:32;18.70;99.90
37702;DHT22;23548;51.196;6.838;2022-08-27T07:20:59;18.80;99.90
37702;DHT22;23548;51.196;6.838;2022-08-27T07:23:25;18.90;99.90
37702;DHT22;23548;51.196;6.838;2022-08-27T07:25:51;18.90;99.90
37702;DHT22;23548;51.196;6.838;2022-08-27T07:28:17;18.80;99.90
37702;DHT22;23548;51.196;6.838;2022-08-27T07:30:44;18.90;99.90
37702;DHT22;23548;51.196;6.838;2022-08-27T07:33:10;18.80;99.90
37702;DHT22;23548;51.196;6.838;2022-08-27T07:35:36;19.00;99.90
37702;DHT22;23548;51.196;6.838;2022-08-27T07:38:02;19.10;99.90
37702;DHT22;23548;51.196;6.838;2022-08-27T07:40:28;19.10;99.90
37702;DHT22;23548;51.196;6.838;2022-08-27T07:42:54;19.00;99.90
37702;DHT22;23548;51.196;6.838;2022-08-27T07:45:52;19.10;99.90
37702;DHT22;23548;51.196;6.838;2022-08-27T07:48:24;19.30;99.90
37702;DHT22;23548;51.196;6.838;2022-08-27T07:50:51;19.50;99.90
37702;DHT22;23548;51.196;6.838;2022-08-27T07:53:18;19.50;99.90
37702;DHT22;23548;51.196;6.838;2022-08-27T07:55:44;19.60;99.90
37702;DHT22;23548;51.196;6.838;2022-08-27T07:58:10;19.80;99.90
37702;DHT22;23548;51.196;6.838;2022-08-27T08:00:39;20.00;99.90
37702;DHT22;23548;51.196;6.838;2022-08-27T08:03:05;19.80;99.90
37702;DHT22;23548;51.196;6.838;2022-08-27T08:05:31;19.80;99.90
37702;DHT22;23548;51.196;6.838;2022-08-27T08:07:57;19.80;99.90
37702;DHT22;23548;51.196;6.838;2022-08-27T08:10:23;19.90;99.90
37702;DHT22;23548;51.196;6.838;2022-08-27T08:12:49;20.00;99.90
37702;DHT22;23548;51.196;6.838;2022-08-27T08:15:16;20.20;99.90
37702;DHT22;23548;51.196;6.838;2022-08-27T08:17:43;20.30;99.90
37702;DHT22;23548;51.196;6.838;2022-08-27T08:20:10;20.20;99.90
37702;DHT22;23548;51.196;6.838;2022-08-27T08:22:38;20.20;99.90
37702;DHT22;23548;51.196;6.838;2022-08-27T08:25:05;20.30;99.90
37702;DHT22;23548;51.196;6.838;2022-08-27T08:27:31;20.30;99.90
37702;DHT22;23548;51.196;6.838;2022-08-27T08:29:58;20.30;99.90
37702;DHT22;23548;51.196;6.838;2022-08-27T08:32:24;20.40;99.90
37702;DHT22;23548;51.196;6.838;2022-08-27T08:34:50;20.30;99.90
37702;DHT22;23548;51.196;6.838;2022-08-27T08:37:16;20.30;99.90
37702;DHT22;23548;51.196;6.838;2022-08-27T08:39:42;20.40;99.90
37702;DHT22;23548;51.196;6.838;2022-08-27T08:42:29;20.70;99.90
37702;DHT22;23548;51.196;6.838;2022-08-27T08:44:57;20.80;99.90
37702;DHT22;23548;51.196;6.838;2022-08-27T08:47:40;20.80;99.90
37702;DHT22;23548;51.196;6.838;2022-08-27T08:55:44;20.70;99.90
37702;DHT22;23548;51.196;6.838;2022-08-27T08:58:29;20.60;99.90
37702;DHT22;23548;51.196;6.838;2022-08-27T09:00:59;20.70;99.90
37702;DHT22;23548;51.196;6.838;2022-08-27T09:03:27;20.60;99.90
37702;DHT22;23548;51.196;6.838;2022-08-27T09:06:06;20.80;99.90
37702;DHT22;23548;51.196;6.838;2022-08-27T09:08:39;21.00;99.90
37702;DHT22;23548;51.196;6.838;2022-08-27T09:11:47;20.90;99.90
37702;DHT22;23548;51.196;6.838;2022-08-27T09:16:43;20.80;99.90
37702;DHT22;23548;51.196;6.838;2022-08-27T09:19:09;21.00;99.90
37702;DHT22;23548;51.196;6.838;2022-08-27T09:21:47;21.00;99.90
37702;DHT22;23548;51.196;6.838;2022-08-27T09:26:49;21.10;99.90
37702;DHT22;23548;51.196;6.838;2022-08-27T09:29:16;21.30;99.90
37702;DHT22;23548;51.196;6.838;2022-08-27T09:31:58;21.20;99.90
37702;DHT22;23548;51.196;6.838;2022-08-27T09:34:31;21.20;99.90
37702;DHT22;23548;51.196;6.838;2022-08-27T09:37:19;21.30;99.90
37702;DHT22;23548;51.196;6.838;2022-08-27T09:42:52;21.50;99.90
37702;DHT22;23548;51.196;6.838;2022-08-27T09:45:27;21.50;99.90
37702;DHT22;23548;51.196;6.838;2022-08-27T09:48:18;21.50;99.90
37702;DHT22;23548;51.196;6.838;2022-08-27T09:50:51;21.30;99.90
37702;DHT22;23548;51.196;6.838;2022-08-27T09:53:22;21.40;99.90
37702;DHT22;23548;51.196;6.838;2022-08-27T09:55:53;21.30;99.90
37702;DHT22;23548;51.196;6.838;2022-08-27T09:58:26;21.00;99.90
37702;DHT22;23548;51.196;6.838;2022-08-27T10:01:17;21.20;99.90
37702;DHT22;23548;51.196;6.838;2022-08-27T10:03:43;21.30;99.90
37702;DHT22;23548;51.196;6.838;2022-08-27T10:06:10;21.60;99.90
37702;DHT22;23548;51.196;6.838;2022-08-27T10:08:47;21.60;99.90
37702;DHT22;23548;51.196;6.838;2022-08-27T10:11:39;21.70;99.90
37702;DHT22;23548;51.196;6.838;2022-08-27T10:14:33;21.90;99.90
37702;DHT22;23548;51.196;6.838;2022-08-27T10:19:57;21.80;99.90
37702;DHT22;23548;51.196;6.838;2022-08-27T10:22:50;21.80;99.90
37702;DHT22;23548;51.196;6.838;2022-08-27T10:53:03;22.10;99.90
37702;DHT22;23548;51.196;6.838;2022-08-27T10:55:50;22.10;99.90
37702;DHT22;23548;51.196;6.838;2022-08-27T10:58:24;22.40;99.90
37702;DHT22;23548;51.196;6.838;2022-08-27T11:01:10;22.60;99.90
37702;DHT22;23548;51.196;6.838;2022-08-27T11:06:53;22.70;99.90
37702;DHT22;23548;51.196;6.838;2022-08-27T11:09:23;22.80;99.90
37702;DHT22;23548;51.196;6.838;2022-08-27T11:11:58;22.80;99.90
37702;DHT22;23548;51.196;6.838;2022-08-27T11:16:59;22.90;99.90
37702;DHT22;23548;51.196;6.838;2022-08-27T11:22:31;22.90;99.90
37702;DHT22;23548;51.196;6.838;2022-08-27T11:25:14;22.80;99.90
37702;DHT22;23548;51.196;6.838;2022-08-27T11:27:44;22.80;99.90
37702;DHT22;23548;51.196;6.838;2022-08-27T11:33:24;22.70;99.90
37702;DHT22;23548;51.196;6.838;2022-08-27T11:36:14;22.70;99.90
37702;DHT22;23548;51.196;6.838;2022-08-27T11:38:58;23.00;99.90
37702;DHT22;23548;51.196;6.838;2022-08-27T11:44:21;24.00;99.90
37702;DHT22;23548;51.196;6.838;2022-08-27T11:47:12;23.60;99.90
37702;DHT22;23548;51.196;6.838;2022-08-27T11:49:53;24.00;99.90
37702;DHT22;23548;51.196;6.838;2022-08-27T11:52:23;24.20;99.90
37702;DHT22;23548;51.196;6.838;2022-08-27T11:55:23;24.00;99.90
37702;DHT22;23548;51.196;6.838;2022-08-27T12:00:42;23.60;99.90
37702;DHT22;23548;51.196;6.838;2022-08-27T12:03:26;23.80;99.90
37702;DHT22;23548;51.196;6.838;2022-08-27T12:24:26;23.80;99.90
37702;DHT22;23548;51.196;6.838;2022-08-27T12:26:59;24.00;99.90
37702;DHT22;23548;51.196;6.838;2022-08-27T12:32:09;24.40;99.10
37702;DHT22;23548;51.196;6.838;2022-08-27T12:34:47;23.80;99.70
37702;DHT22;23548;51.196;6.838;2022-08-27T12:37:14;24.30;99.30
37702;DHT22;23548;51.196;6.838;2022-08-27T12:39:43;24.60;98.40
37702;DHT22;23548;51.196;6.838;2022-08-27T12:42:17;24.50;98.40
37702;DHT22;23548;51.196;6.838;2022-08-27T12:44:44;24.70;97.90
37702;DHT22;23548;51.196;6.838;2022-08-27T12:47:11;24.90;97.50
37702;DHT22;23548;51.196;6.838;2022-08-27T12:49:50;24.60;97.50
37702;DHT22;23548;51.196;6.838;2022-08-27T12:58:22;23.70;98.60
37702;DHT22;23548;51.196;6.838;2022-08-27T13:03:53;23.90;98.40
37702;DHT22;23548;51.196;6.838;2022-08-27T13:06:31;24.10;97.70
37702;DHT22;23548;51.196;6.838;2022-08-27T13:09:06;23.70;98.40
37702;DHT22;23548;51.196;6.838;2022-08-27T13:14:15;24.40;97.20
37702;DHT22;23548;51.196;6.838;2022-08-27T13:16:49;24.90;96.50
37702;DHT22;23548;51.196;6.838;2022-08-27T13:21:49;24.90;95.70
37702;DHT22;23548;51.196;6.838;2022-08-27T13:24:20;24.60;96.20
37702;DHT22;23548;51.196;6.838;2022-08-27T13:26:51;24.60;96.00
37702;DHT22;23548;51.196;6.838;2022-08-27T13:29:18;24.50;95.90
37702;DHT22;23548;51.196;6.838;2022-08-27T13:31:44;24.30;96.10
37702;DHT22;23548;51.196;6.838;2022-08-27T13:34:17;24.00;96.70
37702;DHT22;23548;51.196;6.838;2022-08-27T13:39:26;24.00;96.90
37702;DHT22;23548;51.196;6.838;2022-08-27T13:41:53;23.70;97.30
37702;DHT22;23548;51.196;6.838;2022-08-27T13:44:26;23.60;97.50
37702;DHT22;23548;51.196;6.838;2022-08-27T13:47:07;23.80;97.00
37702;DHT22;23548;51.196;6.838;2022-08-27T13:49:36;23.90;96.70
37702;DHT22;23548;51.196;6.838;2022-08-27T13:52:29;23.80;96.90
37702;DHT22;23548;51.196;6.838;2022-08-27T13:55:07;23.90;96.50
37702;DHT22;23548;51.196;6.838;2022-08-27T13:57:46;24.10;96.30
37702;DHT22;23548;51.196;6.838;2022-08-27T14:00:19;24.40;95.90
37702;DHT22;23548;51.196;6.838;2022-08-27T14:02:46;24.00;96.00
37702;DHT22;23548;51.196;6.838;2022-08-27T14:05:29;24.20;95.90
37702;DHT22;23548;51.196;6.838;2022-08-27T14:07:57;24.00;95.90
37702;DHT22;23548;51.196;6.838;2022-08-27T14:10:34;23.90;96.30
37702;DHT22;23548;51.196;6.838;2022-08-27T14:13:10;23.70;96.60
37702;DHT22;23548;51.196;6.838;2022-08-27T14:15:41;24.10;96.20
37702;DHT22;23548;51.196;6.838;2022-08-27T14:18:35;24.10;95.80
37702;DHT22;23548;51.196;6.838;2022-08-27T14:21:03;23.70;96.30
37702;DHT22;23548;51.196;6.838;2022-08-27T14:23:30;23.80;96.40
37702;DHT22;23548;51.196;6.838;2022-08-27T14:25:59;23.70;96.30
37702;DHT22;23548;51.196;6.838;2022-08-27T14:28:27;23.60;96.50
37702;DHT22;23548;51.196;6.838;2022-08-27T14:30:53;23.70;96.30
37702;DHT22;23548;51.196;6.838;2022-08-27T14:33:19;23.80;96.30
37702;DHT22;23548;51.196;6.838;2022-08-27T14:35:45;23.70;96.30
37702;DHT22;23548;51.196;6.838;2022-08-27T14:38:17;23.70;96.20
37702;DHT22;23548;51.196;6.838;2022-08-27T14:40:45;23.90;96.00
37702;DHT22;23548;51.196;6.838;2022-08-27T14:43:11;23.80;95.90
37702;DHT22;23548;51.196;6.838;2022-08-27T14:45:39;23.70;95.90
37702;DHT22;23548;51.196;6.838;2022-08-27T14:48:11;23.50;96.50
37702;DHT22;23548;51.196;6.838;2022-08-27T14:50:38;23.40;96.70
37702;DHT22;23548;51.196;6.838;2022-08-27T14:53:04;23.40;97.00
37702;DHT22;23548;51.196;6.838;2022-08-27T14:55:30;23.20;97.10
37702;DHT22;23548;51.196;6.838;2022-08-27T14:58:00;23.20;97.20
37702;DHT22;23548;51.196;6.838;2022-08-27T15:00:26;23.10;97.60
37702;DHT22;23548;51.196;6.838;2022-08-27T15:02:55;23.30;97.20
37702;DHT22;23548;51.196;6.838;2022-08-27T15:05:23;23.30;97.20
37702;DHT22;23548;51.196;6.838;2022-08-27T15:07:49;23.30;97.00
37702;DHT22;23548;51.196;6.838;2022-08-27T15:10:15;23.20;97.10
37702;DHT22;23548;51.196;6.838;2022-08-27T15:12:42;23.20;97.10
37702;DHT22;23548;51.196;6.838;2022-08-27T15:15:09;23.30;97.10
37702;DHT22;23548;51.196;6.838;2022-08-27T15:17:35;23.20;97.00
37702;DHT22;23548;51.196;6.838;2022-08-27T15:20:04;23.30;97.20
37702;DHT22;23548;51.196;6.838;2022-08-27T15:22:33;23.30;97.00
37702;DHT22;23548;51.196;6.838;2022-08-27T15:24:59;23.30;97.10
37702;DHT22;23548;51.196;6.838;2022-08-27T15:27:26;23.30;96.80
37702;DHT22;23548;51.196;6.838;2022-08-27T15:29:52;23.40;96.60
37702;DHT22;23548;51.196;6.838;2022-08-27T15:32:31;23.30;96.70
37702;DHT22;23548;51.196;6.838;2022-08-27T15:34:58;23.00;97.00
37702;DHT22;23548;51.196;6.838;2022-08-27T15:37:26;23.00;97.10
37702;DHT22;23548;51.196;6.838;2022-08-27T15:39:52;23.10;97.20
37702;DHT22;23548;51.196;6.838;2022-08-27T15:42:18;23.10;96.90
37702;DHT22;23548;51.196;6.838;2022-08-27T15:44:48;22.90;97.40
37702;DHT22;23548;51.196;6.838;2022-08-27T15:47:15;22.60;97.50
37702;DHT22;23548;51.196;6.838;2022-08-27T15:49:41;22.90;97.40
37702;DHT22;23548;51.196;6.838;2022-08-27T15:52:11;23.10;97.00
37702;DHT22;23548;51.196;6.838;2022-08-27T15:54:38;22.90;97.30
37702;DHT22;23548;51.196;6.838;2022-08-27T15:57:05;23.00;97.10
37702;DHT22;23548;51.196;6.838;2022-08-27T15:59:31;23.10;97.00
37702;DHT22;23548;51.196;6.838;2022-08-27T16:01:58;23.10;96.90
37702;DHT22;23548;51.196;6.838;2022-08-27T16:04:25;22.90;96.80
37702;DHT22;23548;51.196;6.838;2022-08-27T16:06:51;22.80;97.00
37702;DHT22;23548;51.196;6.838;2022-08-27T16:09:17;22.90;97.00
37702;DHT22;23548;51.196;6.838;2022-08-27T16:11:43;22.80;97.00
37702;DHT22;23548;51.196;6.838;2022-08-27T16:14:11;22.70;97.30
37702;DHT22;23548;51.196;6.838;2022-08-27T16:16:38;22.60;97.50
37702;DHT22;23548;51.196;6.838;2022-08-27T16:19:05;22.80;97.20
37702;DHT22;23548;51.196;6.838;2022-08-27T16:21:32;23.00;97.10
37702;DHT22;23548;51.196;6.838;2022-08-27T16:24:04;23.00;97.00
37702;DHT22;23548;51.196;6.838;2022-08-27T16:26:30;23.00;96.90
37702;DHT22;23548;51.196;6.838;2022-08-27T16:28:56;22.90;97.20
37702;DHT22;23548;51.196;6.838;2022-08-27T16:31:22;23.00;97.00
37702;DHT22;23548;51.196;6.838;2022-08-27T16:33:48;22.90;97.00
37702;DHT22;23548;51.196;6.838;2022-08-27T16:36:14;22.80;97.20
37702;DHT22;23548;51.196;6.838;2022-08-27T16:38:40;22.70;97.10
37702;DHT22;23548;51.196;6.838;2022-08-27T16:41:06;22.60;97.30
37702;DHT22;23548;51.196;6.838;2022-08-27T16:43:33;22.50;97.70
37702;DHT22;23548;51.196;6.838;2022-08-27T16:46:00;22.40;97.70
37702;DHT22;23548;51.196;6.838;2022-08-27T16:48:27;22.40;97.50
37702;DHT22;23548;51.196;6.838;2022-08-27T16:51:32;22.30;97.70
37702;DHT22;23548;51.196;6.838;2022-08-27T16:53:59;22.20;98.40
37702;DHT22;23548;51.196;6.838;2022-08-27T16:56:26;22.30;97.90
37702;DHT22;23548;51.196;6.838;2022-08-27T16:58:52;22.30;97.60
37702;DHT22;23548;51.196;6.838;2022-08-27T17:01:20;22.30;97.70
37702;DHT22;23548;51.196;6.838;2022-08-27T17:03:49;22.20;97.50
37702;DHT22;23548;51.196;6.838;2022-08-27T17:06:16;22.10;98.00
37702;DHT22;23548;51.196;6.838;2022-08-27T17:08:43;22.10;97.70
37702;DHT22;23548;51.196;6.838;2022-08-27T17:11:15;22.20;98.00
37702;DHT22;23548;51.196;6.838;2022-08-27T17:13:43;22.20;98.10
37702;DHT22;23548;51.196;6.838;2022-08-27T17:16:10;22.20;98.00
37702;DHT22;23548;51.196;6.838;2022-08-27T17:18:36;22.20;97.90
37702;DHT22;23548;51.196;6.838;2022-08-27T17:21:03;22.20;97.90
37702;DHT22;23548;51.196;6.838;2022-08-27T17:25:58;22.10;98.00
37702;DHT22;23548;51.196;6.838;2022-08-27T17:28:24;22.10;98.20
37702;DHT22;23548;51.196;6.838;2022-08-27T17:30:50;22.00;98.20
37702;DHT22;23548;51.196;6.838;2022-08-27T17:33:21;22.10;98.20